sensor_id;sensor_type;location;lat;lon;timestamp;temperature;humidity
43183;DHT22;28802;38.578;-0.066;2023-07-09T00:00:48;26.80;99.90
43183;DHT22;28802;38.578;-0.066;2023-07-09T00:03:15;26.80;99.90
43183;DHT22;28802;38.578;-0.066;2023-07-09T00:05:41;26.80;99.90
43183;DHT22;28802;38.578;-0.066;2023-07-09T00:08:30;26.80;99.90
43183;DHT22;28802;38.578;-0.066;2023-07-09T00:10:57;26.80;99.90
43183;DHT22;28802;38.578;-0.066;2023-07-09T00:13:24;26.80;99.90
43183;DHT22;28802;38.578;-0.066;2023-07-09T00:15:51;26.70;99.90
43183;DHT22;28802;38.578;-0.066;2023-07-09T00:18:17;26.70;99.90
43183;DHT22;28802;38.578;-0.066;2023-07-09T00:20:43;26.70;99.90
43183;DHT22;28802;38.578;-0.066;2023-07-09T00:23:10;26.70;99.90
43183;DHT22;28802;38.578;-0.066;2023-07-09T00:25:40;26.60;99.90
43183;DHT22;28802;38.578;-0.066;2023-07-09T00:28:13;26.60;99.90
43183;DHT22;28802;38.578;-0.066;2023-07-09T00:30:39;26.70;99.90
43183;DHT22;28802;38.578;-0.066;2023-07-09T00:33:04;26.70;99.90
43183;DHT22;28802;38.578;-0.066;2023-07-09T00:35:30;26.80;99.90
43183;DHT22;28802;38.578;-0.066;2023-07-09T00:37:56;26.60;99.90
43183;DHT22;28802;38.578;-0.066;2023-07-09T00:40:26;26.50;99.90
43183;DHT22;28802;38.578;-0.066;2023-07-09T00:42:54;26.30;99.90
43183;DHT22;28802;38.578;-0.066;2023-07-09T00:45:24;26.20;99.90
43183;DHT22;28802;38.578;-0.066;2023-07-09T00:47:59;26.10;99.90
43183;DHT22;28802;38.578;-0.066;2023-07-09T00:50:33;26.00;99.90
43183;DHT22;28802;38.578;-0.066;2023-07-09T00:53:15;26.00;99.90
43183;DHT22;28802;38.578;-0.066;2023-07-09T00:55:49;26.00;99.90
43183;DHT22;28802;38.578;-0.066;2023-07-09T00:58:17;26.00;99.90
43183;DHT22;28802;38.578;-0.066;2023-07-09T01:00:48;26.10;99.90
43183;DHT22;28802;38.578;-0.066;2023-07-09T01:03:39;26.20;99.90
43183;DHT22;28802;38.578;-0.066;2023-07-09T01:06:08;26.20;99.90
43183;DHT22;28802;38.578;-0.066;2023-07-09T01:08:37;26.30;99.90
43183;DHT22;28802;38.578;-0.066;2023-07-09T01:11:21;26.20;99.90
43183;DHT22;28802;38.578;-0.066;2023-07-09T01:13:52;26.20;99.90
43183;DHT22;28802;38.578;-0.066;2023-07-09T01:16:19;26.30;99.90
43183;DHT22;28802;38.578;-0.066;2023-07-09T01:18:52;26.40;99.90
43183;DHT22;28802;38.578;-0.066;2023-07-09T01:21:19;26.50;99.90
43183;DHT22;28802;38.578;-0.066;2023-07-09T01:23:46;26.30;99.90
43183;DHT22;28802;38.578;-0.066;2023-07-09T01:28:47;26.10;99.90
43183;DHT22;28802;38.578;-0.066;2023-07-09T01:31:14;26.00;99.90
43183;DHT22;28802;38.578;-0.066;2023-07-09T01:33:44;26.10;99.90
43183;DHT22;28802;38.578;-0.066;2023-07-09T01:36:16;26.20;99.90
43183;DHT22;28802;38.578;-0.066;2023-07-09T01:38:43;26.30;99.90
43183;DHT22;28802;38.578;-0.066;2023-07-09T01:41:10;26.30;99.90
43183;DHT22;28802;38.578;-0.066;2023-07-09T01:43:40;26.30;99.90
43183;DHT22;28802;38.578;-0.066;2023-07-09T01:46:07;26.30;99.90
43183;DHT22;28802;38.578;-0.066;2023-07-09T01:48:34;26.10;99.90
43183;DHT22;28802;38.578;-0.066;2023-07-09T01:51:14;26.10;99.90
43183;DHT22;28802;38.578;-0.066;2023-07-09T01:53:43;26.20;99.90
43183;DHT22;28802;38.578;-0.066;2023-07-09T01:56:10;26.30;99.90
43183;DHT22;28802;38.578;-0.066;2023-07-09T01:58:37;26.30;99.90
43183;DHT22;28802;38.578;-0.066;2023-07-09T02:01:09;26.40;99.90
43183;DHT22;28802;38.578;-0.066;2023-07-09T02:03:35;26.50;99.90
43183;DHT22;28802;38.578;-0.066;2023-07-09T02:06:01;26.40;99.90
43183;DHT22;28802;38.578;-0.066;2023-07-09T02:08:35;26.40;99.90
43183;DHT22;28802;38.578;-0.066;2023-07-09T02:11:03;26.40;99.90
43183;DHT22;28802;38.578;-0.066;2023-07-09T02:13:29;26.40;99.90
43183;DHT22;28802;38.578;-0.066;2023-07-09T02:15:55;26.50;99.90
43183;DHT22;28802;38.578;-0.066;2023-07-09T02:18:21;26.50;99.90
43183;DHT22;28802;38.578;-0.066;2023-07-09T02:20:47;26.60;99.90
43183;DHT22;28802;38.578;-0.066;2023-07-09T02:23:12;26.60;99.90
43183;DHT22;28802;38.578;-0.066;2023-07-09T02:25:38;26.60;99.90
43183;DHT22;28802;38.578;-0.066;2023-07-09T02:28:04;26.70;99.90
43183;DHT22;28802;38.578;-0.066;2023-07-09T02:30:30;26.60;99.90
43183;DHT22;28802;38.578;-0.066;2023-07-09T02:32:56;26.70;99.90
43183;DHT22;28802;38.578;-0.066;2023-07-09T02:35:23;26.70;99.90
43183;DHT22;28802;38.578;-0.066;2023-07-09T02:37:49;26.70;99.90
43183;DHT22;28802;38.578;-0.066;2023-07-09T02:40:15;26.70;99.90
43183;DHT22;28802;38.578;-0.066;2023-07-09T02:42:41;26.60;99.90
43183;DHT22;28802;38.578;-0.066;2023-07-09T02:45:09;26.60;99.90
43183;DHT22;28802;38.578;-0.066;2023-07-09T02:47:35;26.50;99.90
43183;DHT22;28802;38.578;-0.066;2023-07-09T02:50:02;26.50;99.90
43183;DHT22;28802;38.578;-0.066;2023-07-09T02:52:29;26.40;99.90
43183;DHT22;28802;38.578;-0.066;2023-07-09T02:54:55;26.40;99.90
43183;DHT22;28802;38.578;-0.066;2023-07-09T02:57:20;26.40;99.90
43183;DHT22;28802;38.578;-0.066;2023-07-09T02:59:46;26.50;99.90
43183;DHT22;28802;38.578;-0.066;2023-07-09T03:02:12;26.60;99.90
43183;DHT22;28802;38.578;-0.066;2023-07-09T03:04:38;26.60;99.90
43183;DHT22;28802;38.578;-0.066;2023-07-09T03:07:04;26.60;99.90
43183;DHT22;28802;38.578;-0.066;2023-07-09T03:09:30;26.60;99.90
43183;DHT22;28802;38.578;-0.066;2023-07-09T03:11:56;26.70;99.90
43183;DHT22;28802;38.578;-0.066;2023-07-09T03:14:22;26.70;99.90
43183;DHT22;28802;38.578;-0.066;2023-07-09T03:16:48;26.60;99.90
43183;DHT22;28802;38.578;-0.066;2023-07-09T03:19:14;26.60;99.90
43183;DHT22;28802;38.578;-0.066;2023-07-09T03:21:40;26.50;99.90
43183;DHT22;28802;38.578;-0.066;2023-07-09T03:24:06;26.40;99.90
43183;DHT22;28802;38.578;-0.066;2023-07-09T03:26:34;26.50;99.90
43183;DHT22;28802;38.578;-0.066;2023-07-09T03:29:00;26.50;99.90
43183;DHT22;28802;38.578;-0.066;2023-07-09T03:31:26;26.40;99.90
43183;DHT22;28802;38.578;-0.066;2023-07-09T03:33:52;26.50;99.90
43183;DHT22;28802;38.578;-0.066;2023-07-09T03:36:19;26.50;99.90
43183;DHT22;28802;38.578;-0.066;2023-07-09T03:38:46;26.50;99.90
43183;DHT22;28802;38.578;-0.066;2023-07-09T03:41:11;26.50;99.90
43183;DHT22;28802;38.578;-0.066;2023-07-09T03:43:37;26.50;99.90
43183;DHT22;28802;38.578;-0.066;2023-07-09T03:46:03;26.40;99.90
43183;DHT22;28802;38.578;-0.066;2023-07-09T03:48:29;26.30;99.90
43183;DHT22;28802;38.578;-0.066;2023-07-09T03:50:55;26.30;99.90
43183;DHT22;28802;38.578;-0.066;2023-07-09T03:53:21;26.30;99.90
43183;DHT22;28802;38.578;-0.066;2023-07-09T03:55:52;26.30;99.90
43183;DHT22;28802;38.578;-0.066;2023-07-09T03:58:18;26.30;99.90
43183;DHT22;28802;38.578;-0.066;2023-07-09T04:00:44;26.40;99.90
43183;DHT22;28802;38.578;-0.066;2023-07-09T04:03:10;26.30;99.90
43183;DHT22;28802;38.578;-0.066;2023-07-09T04:05:36;26.30;99.90
43183;DHT22;28802;38.578;-0.066;2023-07-09T04:08:03;26.30;99.90
43183;DHT22;28802;38.578;-0.066;2023-07-09T04:10:29;26.00;99.90
43183;DHT22;28802;38.578;-0.066;2023-07-09T04:12:55;25.80;99.90
43183;DHT22;28802;38.578;-0.066;2023-07-09T04:15:21;25.70;99.90
43183;DHT22;28802;38.578;-0.066;2023-07-09T04:17:47;25.80;99.90
43183;DHT22;28802;38.578;-0.066;2023-07-09T04:20:12;25.70;99.90
43183;DHT22;28802;38.578;-0.066;2023-07-09T04:22:39;25.60;99.90
43183;DHT22;28802;38.578;-0.066;2023-07-09T04:25:09;25.60;99.90
43183;DHT22;28802;38.578;-0.066;2023-07-09T04:27:36;25.60;99.90
43183;DHT22;28802;38.578;-0.066;2023-07-09T04:30:03;25.60;99.90
43183;DHT22;28802;38.578;-0.066;2023-07-09T04:32:31;25.60;99.90
43183;DHT22;28802;38.578;-0.066;2023-07-09T04:34:56;25.60;99.90
43183;DHT22;28802;38.578;-0.066;2023-07-09T04:37:23;25.70;99.90
43183;DHT22;28802;38.578;-0.066;2023-07-09T04:39:49;25.70;99.90
43183;DHT22;28802;38.578;-0.066;2023-07-09T04:42:16;25.90;99.90
43183;DHT22;28802;38.578;-0.066;2023-07-09T04:44:44;25.90;99.90
43183;DHT22;28802;38.578;-0.066;2023-07-09T04:47:10;26.00;99.90
43183;DHT22;28802;38.578;-0.066;2023-07-09T04:49:37;26.00;99.90
43183;DHT22;28802;38.578;-0.066;2023-07-09T04:52:03;26.00;99.90
43183;DHT22;28802;38.578;-0.066;2023-07-09T04:54:29;25.90;99.90
43183;DHT22;28802;38.578;-0.066;2023-07-09T04:56:56;25.90;99.90
43183;DHT22;28802;38.578;-0.066;2023-07-09T04:59:22;25.90;99.90
43183;DHT22;28802;38.578;-0.066;2023-07-09T05:01:49;26.00;99.90
43183;DHT22;28802;38.578;-0.066;2023-07-09T05:04:15;26.00;99.90
43183;DHT22;28802;38.578;-0.066;2023-07-09T05:06:41;26.00;99.90
43183;DHT22;28802;38.578;-0.066;2023-07-09T05:09:07;26.00;99.90
43183;DHT22;28802;38.578;-0.066;2023-07-09T05:11:35;26.00;99.90
43183;DHT22;28802;38.578;-0.066;2023-07-09T05:14:02;26.00;99.90
43183;DHT22;28802;38.578;-0.066;2023-07-09T05:16:28;26.00;99.90
43183;DHT22;28802;38.578;-0.066;2023-07-09T05:18:54;25.90;99.90
43183;DHT22;28802;38.578;-0.066;2023-07-09T05:21:20;26.00;99.90
43183;DHT22;28802;38.578;-0.066;2023-07-09T05:23:46;26.00;99.90
43183;DHT22;28802;38.578;-0.066;2023-07-09T05:26:12;26.10;99.90
43183;DHT22;28802;38.578;-0.066;2023-07-09T05:28:38;26.10;99.90
43183;DHT22;28802;38.578;-0.066;2023-07-09T05:31:04;26.20;99.90
43183;DHT22;28802;38.578;-0.066;2023-07-09T05:33:30;26.30;99.90
43183;DHT22;28802;38.578;-0.066;2023-07-09T05:35:56;26.40;99.90
43183;DHT22;28802;38.578;-0.066;2023-07-09T05:38:22;26.50;99.90
43183;DHT22;28802;38.578;-0.066;2023-07-09T05:40:48;26.60;99.90
43183;DHT22;28802;38.578;-0.066;2023-07-09T05:43:14;26.50;99.90
43183;DHT22;28802;38.578;-0.066;2023-07-09T05:45:40;26.60;99.90
43183;DHT22;28802;38.578;-0.066;2023-07-09T05:48:06;26.60;99.90
43183;DHT22;28802;38.578;-0.066;2023-07-09T05:50:34;26.70;99.90
43183;DHT22;28802;38.578;-0.066;2023-07-09T05:53:00;26.80;99.90
43183;DHT22;28802;38.578;-0.066;2023-07-09T05:55:26;27.00;99.90
43183;DHT22;28802;38.578;-0.066;2023-07-09T05:57:53;27.20;99.90
43183;DHT22;28802;38.578;-0.066;2023-07-09T06:00:19;27.50;99.90
43183;DHT22;28802;38.578;-0.066;2023-07-09T06:02:45;27.90;99.90
43183;DHT22;28802;38.578;-0.066;2023-07-09T06:05:11;28.20;99.90
43183;DHT22;28802;38.578;-0.066;2023-07-09T06:07:38;28.50;99.90
43183;DHT22;28802;38.578;-0.066;2023-07-09T06:10:05;28.90;99.90
43183;DHT22;28802;38.578;-0.066;2023-07-09T06:12:32;29.00;99.90
43183;DHT22;28802;38.578;-0.066;2023-07-09T06:14:58;29.30;99.90
43183;DHT22;28802;38.578;-0.066;2023-07-09T06:17:23;29.50;99.90
43183;DHT22;28802;38.578;-0.066;2023-07-09T06:19:49;29.60;99.90
43183;DHT22;28802;38.578;-0.066;2023-07-09T06:22:15;29.40;99.90
43183;DHT22;28802;38.578;-0.066;2023-07-09T06:24:41;29.30;99.90
43183;DHT22;28802;38.578;-0.066;2023-07-09T06:27:08;29.60;99.90
43183;DHT22;28802;38.578;-0.066;2023-07-09T06:29:34;30.10;99.90
43183;DHT22;28802;38.578;-0.066;2023-07-09T06:32:00;30.20;99.90
43183;DHT22;28802;38.578;-0.066;2023-07-09T06:34:26;30.50;99.90
43183;DHT22;28802;38.578;-0.066;2023-07-09T06:36:52;30.80;99.90
43183;DHT22;28802;38.578;-0.066;2023-07-09T06:39:18;30.90;99.90
43183;DHT22;28802;38.578;-0.066;2023-07-09T06:41:45;30.90;99.90
43183;DHT22;28802;38.578;-0.066;2023-07-09T06:44:31;31.20;99.90
43183;DHT22;28802;38.578;-0.066;2023-07-09T06:46:56;31.40;99.90
43183;DHT22;28802;38.578;-0.066;2023-07-09T06:49:22;31.20;99.90
43183;DHT22;28802;38.578;-0.066;2023-07-09T06:51:48;30.20;99.90
43183;DHT22;28802;38.578;-0.066;2023-07-09T06:54:14;29.90;99.90
43183;DHT22;28802;38.578;-0.066;2023-07-09T06:56:41;30.40;99.90
43183;DHT22;28802;38.578;-0.066;2023-07-09T06:59:07;30.70;99.90
43183;DHT22;28802;38.578;-0.066;2023-07-09T07:01:35;30.50;99.90
43183;DHT22;28802;38.578;-0.066;2023-07-09T07:04:01;30.60;99.90
43183;DHT22;28802;38.578;-0.066;2023-07-09T07:06:27;29.80;99.90
43183;DHT22;28802;38.578;-0.066;2023-07-09T07:08:53;29.70;99.90
43183;DHT22;28802;38.578;-0.066;2023-07-09T07:11:19;29.70;99.90
43183;DHT22;28802;38.578;-0.066;2023-07-09T07:13:45;29.60;99.90
43183;DHT22;28802;38.578;-0.066;2023-07-09T07:16:12;29.40;99.90
43183;DHT22;28802;38.578;-0.066;2023-07-09T07:18:38;29.40;99.90
43183;DHT22;28802;38.578;-0.066;2023-07-09T07:21:05;29.10;99.90
43183;DHT22;28802;38.578;-0.066;2023-07-09T07:23:31;29.20;99.90
43183;DHT22;28802;38.578;-0.066;2023-07-09T07:25:58;29.20;99.90
43183;DHT22;28802;38.578;-0.066;2023-07-09T07:28:24;29.00;99.90
43183;DHT22;28802;38.578;-0.066;2023-07-09T07:31:07;28.70;99.90
43183;DHT22;28802;38.578;-0.066;2023-07-09T07:33:34;28.80;99.90
43183;DHT22;28802;38.578;-0.066;2023-07-09T07:36:00;29.10;99.90
43183;DHT22;28802;38.578;-0.066;2023-07-09T07:38:26;30.00;99.90
43183;DHT22;28802;38.578;-0.066;2023-07-09T07:40:53;30.60;99.90
43183;DHT22;28802;38.578;-0.066;2023-07-09T07:43:19;30.80;99.90
43183;DHT22;28802;38.578;-0.066;2023-07-09T07:45:45;30.60;99.90
43183;DHT22;28802;38.578;-0.066;2023-07-09T07:48:13;30.50;99.90
43183;DHT22;28802;38.578;-0.066;2023-07-09T07:50:39;30.50;99.90
43183;DHT22;28802;38.578;-0.066;2023-07-09T07:53:07;30.20;99.90
43183;DHT22;28802;38.578;-0.066;2023-07-09T07:55:34;29.50;99.90
43183;DHT22;28802;38.578;-0.066;2023-07-09T07:58:01;29.20;99.90
43183;DHT22;28802;38.578;-0.066;2023-07-09T08:00:30;29.00;99.90
43183;DHT22;28802;38.578;-0.066;2023-07-09T08:02:56;29.00;99.90
43183;DHT22;28802;38.578;-0.066;2023-07-09T08:05:22;29.00;99.90
43183;DHT22;28802;38.578;-0.066;2023-07-09T08:07:49;29.20;99.90
43183;DHT22;28802;38.578;-0.066;2023-07-09T08:10:15;29.60;99.90
43183;DHT22;28802;38.578;-0.066;2023-07-09T08:12:41;29.90;99.90
43183;DHT22;28802;38.578;-0.066;2023-07-09T08:15:07;30.00;99.90
43183;DHT22;28802;38.578;-0.066;2023-07-09T08:17:34;30.10;99.90
43183;DHT22;28802;38.578;-0.066;2023-07-09T08:20:00;30.30;99.90
43183;DHT22;28802;38.578;-0.066;2023-07-09T08:22:26;30.90;99.90
43183;DHT22;28802;38.578;-0.066;2023-07-09T08:24:52;30.40;99.90
43183;DHT22;28802;38.578;-0.066;2023-07-09T08:27:19;29.90;99.90
43183;DHT22;28802;38.578;-0.066;2023-07-09T08:29:45;29.90;99.90
43183;DHT22;28802;38.578;-0.066;2023-07-09T08:32:12;29.70;99.90
43183;DHT22;28802;38.578;-0.066;2023-07-09T08:34:40;30.00;99.90
43183;DHT22;28802;38.578;-0.066;2023-07-09T08:37:07;30.30;99.90
43183;DHT22;28802;38.578;-0.066;2023-07-09T08:39:34;30.20;99.90
43183;DHT22;28802;38.578;-0.066;2023-07-09T08:42:04;29.90;99.90
43183;DHT22;28802;38.578;-0.066;2023-07-09T08:44:46;29.80;99.90
43183;DHT22;28802;38.578;-0.066;2023-07-09T08:47:18;29.70;99.90
43183;DHT22;28802;38.578;-0.066;2023-07-09T08:55:27;31.00;99.90
43183;DHT22;28802;38.578;-0.066;2023-07-09T08:58:02;30.60;99.90
43183;DHT22;28802;38.578;-0.066;2023-07-09T09:00:55;31.20;99.90
43183;DHT22;28802;38.578;-0.066;2023-07-09T09:03:41;31.70;99.90
43183;DHT22;28802;38.578;-0.066;2023-07-09T09:06:24;32.10;99.90
43183;DHT22;28802;38.578;-0.066;2023-07-09T09:09:15;32.40;99.90
43183;DHT22;28802;38.578;-0.066;2023-07-09T09:11:49;32.40;99.90
43183;DHT22;28802;38.578;-0.066;2023-07-09T09:14:34;32.40;99.90
43183;DHT22;28802;38.578;-0.066;2023-07-09T09:17:03;32.50;99.90
43183;DHT22;28802;38.578;-0.066;2023-07-09T09:19:38;32.20;99.90
43183;DHT22;28802;38.578;-0.066;2023-07-09T09:22:11;31.70;99.90
43183;DHT22;28802;38.578;-0.066;2023-07-09T09:24:58;31.60;99.90
43183;DHT22;28802;38.578;-0.066;2023-07-09T09:27:27;31.40;99.90
43183;DHT22;28802;38.578;-0.066;2023-07-09T09:29:53;31.70;99.90
43183;DHT22;28802;38.578;-0.066;2023-07-09T09:32:23;32.10;99.90
43183;DHT22;28802;38.578;-0.066;2023-07-09T09:34:50;32.20;99.90
43183;DHT22;28802;38.578;-0.066;2023-07-09T09:37:28;32.50;99.90
43183;DHT22;28802;38.578;-0.066;2023-07-09T09:39:55;33.50;99.90
43183;DHT22;28802;38.578;-0.066;2023-07-09T09:42:24;34.00;99.90
43183;DHT22;28802;38.578;-0.066;2023-07-09T09:44:53;34.50;99.90
43183;DHT22;28802;38.578;-0.066;2023-07-09T09:47:19;35.20;99.90
43183;DHT22;28802;38.578;-0.066;2023-07-09T09:49:45;35.20;99.90
43183;DHT22;28802;38.578;-0.066;2023-07-09T09:52:16;34.30;99.90
43183;DHT22;28802;38.578;-0.066;2023-07-09T09:54:53;33.20;99.90
43183;DHT22;28802;38.578;-0.066;2023-07-09T09:57:23;32.40;99.90
43183;DHT22;28802;38.578;-0.066;2023-07-09T09:59:50;31.50;99.90
43183;DHT22;28802;38.578;-0.066;2023-07-09T10:02:21;31.40;99.90
43183;DHT22;28802;38.578;-0.066;2023-07-09T10:04:48;31.60;99.90
43183;DHT22;28802;38.578;-0.066;2023-07-09T10:07:31;31.70;99.90
43183;DHT22;28802;38.578;-0.066;2023-07-09T10:09:58;31.70;99.90
43183;DHT22;28802;38.578;-0.066;2023-07-09T10:12:39;31.70;99.90
43183;DHT22;28802;38.578;-0.066;2023-07-09T10:16:06;32.00;99.90
43183;DHT22;28802;38.578;-0.066;2023-07-09T10:18:24;32.70;99.90
43183;DHT22;28802;38.578;-0.066;2023-07-09T10:23:51;33.40;99.90
43183;DHT22;28802;38.578;-0.066;2023-07-09T10:26:53;33.40;99.90
43183;DHT22;28802;38.578;-0.066;2023-07-09T10:34:56;31.70;99.90
43183;DHT22;28802;38.578;-0.066;2023-07-09T10:40:21;31.10;99.90
43183;DHT22;28802;38.578;-0.066;2023-07-09T10:42:52;31.10;99.90
43183;DHT22;28802;38.578;-0.066;2023-07-09T10:45:29;31.50;99.90
43183;DHT22;28802;38.578;-0.066;2023-07-09T10:48:02;32.10;99.90
43183;DHT22;28802;38.578;-0.066;2023-07-09T10:50:39;32.80;99.90
43183;DHT22;28802;38.578;-0.066;2023-07-09T10:53:22;32.60;99.90
43183;DHT22;28802;38.578;-0.066;2023-07-09T10:55:53;31.90;99.90
43183;DHT22;28802;38.578;-0.066;2023-07-09T10:58:40;32.30;99.90
43183;DHT22;28802;38.578;-0.066;2023-07-09T11:01:08;33.50;99.90
43183;DHT22;28802;38.578;-0.066;2023-07-09T11:03:51;34.40;99.90
43183;DHT22;28802;38.578;-0.066;2023-07-09T11:06:44;35.00;99.90
43183;DHT22;28802;38.578;-0.066;2023-07-09T11:11:49;34.60;99.90
43183;DHT22;28802;38.578;-0.066;2023-07-09T11:14:31;33.50;99.90
43183;DHT22;28802;38.578;-0.066;2023-07-09T11:16:58;33.20;99.90
43183;DHT22;28802;38.578;-0.066;2023-07-09T11:19:26;33.30;99.90
43183;DHT22;28802;38.578;-0.066;2023-07-09T11:24:44;33.40;99.90
43183;DHT22;28802;38.578;-0.066;2023-07-09T11:27:19;33.80;99.90
43183;DHT22;28802;38.578;-0.066;2023-07-09T11:29:47;34.10;99.90
43183;DHT22;28802;38.578;-0.066;2023-07-09T11:32:21;33.90;99.90
43183;DHT22;28802;38.578;-0.066;2023-07-09T11:34:48;34.60;99.90
43183;DHT22;28802;38.578;-0.066;2023-07-09T11:37:15;34.90;99.90
43183;DHT22;28802;38.578;-0.066;2023-07-09T11:39:47;34.80;99.90
43183;DHT22;28802;38.578;-0.066;2023-07-09T11:42:32;34.90;99.90
43183;DHT22;28802;38.578;-0.066;2023-07-09T11:45:08;33.90;99.90
43183;DHT22;28802;38.578;-0.066;2023-07-09T11:47:47;33.30;99.90
43183;DHT22;28802;38.578;-0.066;2023-07-09T11:50:28;34.00;99.90
43183;DHT22;28802;38.578;-0.066;2023-07-09T11:52:58;34.10;99.90
43183;DHT22;28802;38.578;-0.066;2023-07-09T11:57:59;35.20;99.90
43183;DHT22;28802;38.578;-0.066;2023-07-09T12:00:28;35.20;99.90
43183;DHT22;28802;38.578;-0.066;2023-07-09T12:02:56;35.30;99.90
43183;DHT22;28802;38.578;-0.066;2023-07-09T12:05:27;35.00;99.90
43183;DHT22;28802;38.578;-0.066;2023-07-09T12:07:55;34.90;99.90
43183;DHT22;28802;38.578;-0.066;2023-07-09T12:10:25;34.80;99.90
43183;DHT22;28802;38.578;-0.066;2023-07-09T12:12:55;34.50;99.90
43183;DHT22;28802;38.578;-0.066;2023-07-09T12:15:25;34.60;99.90
43183;DHT22;28802;38.578;-0.066;2023-07-09T12:18:02;35.10;99.90
43183;DHT22;28802;38.578;-0.066;2023-07-09T12:20:33;34.90;99.90
43183;DHT22;28802;38.578;-0.066;2023-07-09T12:23:00;34.90;99.90
43183;DHT22;28802;38.578;-0.066;2023-07-09T12:25:27;35.70;99.90
43183;DHT22;28802;38.578;-0.066;2023-07-09T12:27:55;35.50;99.90
43183;DHT22;28802;38.578;-0.066;2023-07-09T12:30:23;34.60;99.90
43183;DHT22;28802;38.578;-0.066;2023-07-09T12:32:50;34.40;99.90
43183;DHT22;28802;38.578;-0.066;2023-07-09T12:35:18;33.90;99.90
43183;DHT22;28802;38.578;-0.066;2023-07-09T12:37:47;33.40;99.90
43183;DHT22;28802;38.578;-0.066;2023-07-09T12:40:16;33.10;99.90
43183;DHT22;28802;38.578;-0.066;2023-07-09T12:42:43;33.00;99.90
43183;DHT22;28802;38.578;-0.066;2023-07-09T12:45:17;32.90;99.90
43183;DHT22;28802;38.578;-0.066;2023-07-09T12:47:47;33.10;99.90
43183;DHT22;28802;38.578;-0.066;2023-07-09T12:50:31;32.90;99.90
43183;DHT22;28802;38.578;-0.066;2023-07-09T12:53:15;32.60;99.90
43183;DHT22;28802;38.578;-0.066;2023-07-09T12:55:45;32.70;99.90
43183;DHT22;28802;38.578;-0.066;2023-07-09T12:58:18;33.00;99.90
43183;DHT22;28802;38.578;-0.066;2023-07-09T13:00:48;33.10;99.90
43183;DHT22;28802;38.578;-0.066;2023-07-09T13:03:20;33.00;99.90
43183;DHT22;28802;38.578;-0.066;2023-07-09T13:08:58;32.80;99.90
43183;DHT22;28802;38.578;-0.066;2023-07-09T13:11:31;32.70;99.90
43183;DHT22;28802;38.578;-0.066;2023-07-09T13:14:02;32.60;99.90
43183;DHT22;28802;38.578;-0.066;2023-07-09T13:16:29;32.40;99.90
43183;DHT22;28802;38.578;-0.066;2023-07-09T13:18:55;32.70;99.90
43183;DHT22;28802;38.578;-0.066;2023-07-09T13:21:22;32.80;99.90
43183;DHT22;28802;38.578;-0.066;2023-07-09T13:23:48;33.00;99.90
43183;DHT22;28802;38.578;-0.066;2023-07-09T13:26:15;33.30;99.90
43183;DHT22;28802;38.578;-0.066;2023-07-09T13:28:42;33.30;99.90
43183;DHT22;28802;38.578;-0.066;2023-07-09T13:31:19;33.30;99.90
43183;DHT22;28802;38.578;-0.066;2023-07-09T13:33:52;33.10;99.90
43183;DHT22;28802;38.578;-0.066;2023-07-09T13:36:19;32.90;99.90
43183;DHT22;28802;38.578;-0.066;2023-07-09T13:38:45;32.70;99.90
43183;DHT22;28802;38.578;-0.066;2023-07-09T13:41:16;32.50;99.90
43183;DHT22;28802;38.578;-0.066;2023-07-09T13:43:44;32.50;99.90
43183;DHT22;28802;38.578;-0.066;2023-07-09T13:46:10;32.10;99.90
43183;DHT22;28802;38.578;-0.066;2023-07-09T13:48:38;31.90;99.90
43183;DHT22;28802;38.578;-0.066;2023-07-09T13:51:21;31.80;99.90
43183;DHT22;28802;38.578;-0.066;2023-07-09T13:53:49;31.40;99.90
43183;DHT22;28802;38.578;-0.066;2023-07-09T13:56:16;31.10;99.90
43183;DHT22;28802;38.578;-0.066;2023-07-09T13:58:42;31.20;99.90
43183;DHT22;28802;38.578;-0.066;2023-07-09T14:01:14;31.30;99.90
43183;DHT22;28802;38.578;-0.066;2023-07-09T14:03:41;30.70;99.90
43183;DHT22;28802;38.578;-0.066;2023-07-09T14:06:13;30.60;99.90
43183;DHT22;28802;38.578;-0.066;2023-07-09T14:08:39;30.90;99.90
43183;DHT22;28802;38.578;-0.066;2023-07-09T14:11:14;31.00;99.90
43183;DHT22;28802;38.578;-0.066;2023-07-09T14:13:41;30.70;99.90
43183;DHT22;28802;38.578;-0.066;2023-07-09T14:16:10;30.60;99.90
43183;DHT22;28802;38.578;-0.066;2023-07-09T14:18:37;30.70;99.90
43183;DHT22;28802;38.578;-0.066;2023-07-09T14:21:16;30.90;99.90
43183;DHT22;28802;38.578;-0.066;2023-07-09T14:23:43;30.80;99.90
43183;DHT22;28802;38.578;-0.066;2023-07-09T14:26:10;30.60;99.90
43183;DHT22;28802;38.578;-0.066;2023-07-09T14:28:36;30.70;99.90
43183;DHT22;28802;38.578;-0.066;2023-07-09T14:31:09;30.60;99.90
43183;DHT22;28802;38.578;-0.066;2023-07-09T14:33:39;30.80;99.90
43183;DHT22;28802;38.578;-0.066;2023-07-09T14:36:05;30.60;99.90
43183;DHT22;28802;38.578;-0.066;2023-07-09T14:38:31;30.50;99.90
43183;DHT22;28802;38.578;-0.066;2023-07-09T14:40:59;30.70;99.90
43183;DHT22;28802;38.578;-0.066;2023-07-09T14:43:26;31.00;99.90
43183;DHT22;28802;38.578;-0.066;2023-07-09T14:45:52;30.70;99.90
43183;DHT22;28802;38.578;-0.066;2023-07-09T14:48:20;30.70;99.90
43183;DHT22;28802;38.578;-0.066;2023-07-09T14:50:46;30.70;99.90
43183;DHT22;28802;38.578;-0.066;2023-07-09T14:55:46;31.10;99.90
43183;DHT22;28802;38.578;-0.066;2023-07-09T14:58:18;31.40;99.90
43183;DHT22;28802;38.578;-0.066;2023-07-09T15:00:45;31.60;99.90
43183;DHT22;28802;38.578;-0.066;2023-07-09T15:05:45;31.10;99.90
43183;DHT22;28802;38.578;-0.066;2023-07-09T15:08:19;31.00;99.90
43183;DHT22;28802;38.578;-0.066;2023-07-09T15:10:46;30.90;99.90
43183;DHT22;28802;38.578;-0.066;2023-07-09T15:13:30;30.40;99.90
43183;DHT22;28802;38.578;-0.066;2023-07-09T15:15:58;30.30;99.90
43183;DHT22;28802;38.578;-0.066;2023-07-09T15:18:24;30.60;99.90
43183;DHT22;28802;38.578;-0.066;2023-07-09T15:20:54;30.50;99.90
43183;DHT22;28802;38.578;-0.066;2023-07-09T15:23:21;30.50;99.90
43183;DHT22;28802;38.578;-0.066;2023-07-09T15:25:49;30.50;99.90
43183;DHT22;28802;38.578;-0.066;2023-07-09T15:28:16;30.50;99.90
43183;DHT22;28802;38.578;-0.066;2023-07-09T15:30:42;30.50;99.90
43183;DHT22;28802;38.578;-0.066;2023-07-09T15:33:16;30.60;99.90
43183;DHT22;28802;38.578;-0.066;2023-07-09T15:35:44;30.80;99.90
43183;DHT22;28802;38.578;-0.066;2023-07-09T15:38:31;31.10;99.90
43183;DHT22;28802;38.578;-0.066;2023-07-09T15:40:57;31.10;99.90
43183;DHT22;28802;38.578;-0.066;2023-07-09T15:43:24;31.40;99.90
43183;DHT22;28802;38.578;-0.066;2023-07-09T15:45:52;31.40;99.90
43183;DHT22;28802;38.578;-0.066;2023-07-09T15:48:27;31.40;99.90
43183;DHT22;28802;38.578;-0.066;2023-07-09T15:50:56;31.40;99.90
43183;DHT22;28802;38.578;-0.066;2023-07-09T15:53:22;31.70;99.90
43183;DHT22;28802;38.578;-0.066;2023-07-09T15:55:48;31.70;99.90
43183;DHT22;28802;38.578;-0.066;2023-07-09T15:58:23;31.40;99.90
43183;DHT22;28802;38.578;-0.066;2023-07-09T16:00:49;31.20;99.90
43183;DHT22;28802;38.578;-0.066;2023-07-09T16:03:15;31.40;99.90